Terminal Aerodrome Forecast
Issued by NWS Twin Cities, MN

Home | Current Version | Previous Version | Graphics & Text | Print | Product List | Glossary On
Versions: 1 2 3 4 5 6 7 8 9 10 11 12 13 14 15 16 17 18
417
FTUS43 KMPX 201120
TAFSTC
TAF
KSTC 201120Z 2012/2112 VRB02KT 1/2SM FG BKN002
     FM201300 34005KT P6SM SCT250
     FM210200 00000KT P6SM SCT250
     FM210800 VRB02KT P6SM BKN200=

USA.gov is the U.S. government's official web portal to all federal, state and local government web resources and services.